sensor_id;sensor_type;location;lat;lon;timestamp;P1;durP1;ratioP1;P2;durP2;ratioP2
74259;SDS011;62630;55.874;37.516;2023-04-24T00:02:02;10.95;;;4.25;;
74259;SDS011;62630;55.874;37.516;2023-04-24T00:04:28;9.73;;;4.53;;
74259;SDS011;62630;55.874;37.516;2023-04-24T00:06:55;11.80;;;4.05;;
74259;SDS011;62630;55.874;37.516;2023-04-24T00:09:22;10.52;;;4.45;;
74259;SDS011;62630;55.874;37.516;2023-04-24T00:11:48;13.18;;;4.60;;
74259;SDS011;62630;55.874;37.516;2023-04-24T00:14:13;11.50;;;4.95;;
74259;SDS011;62630;55.874;37.516;2023-04-24T00:16:39;11.93;;;4.68;;
74259;SDS011;62630;55.874;37.516;2023-04-24T00:19:04;13.77;;;5.35;;
74259;SDS011;62630;55.874;37.516;2023-04-24T00:21:31;13.75;;;4.65;;
74259;SDS011;62630;55.874;37.516;2023-04-24T00:23:57;9.52;;;4.10;;
74259;SDS011;62630;55.874;37.516;2023-04-24T00:26:23;7.65;;;4.07;;
74259;SDS011;62630;55.874;37.516;2023-04-24T00:28:49;15.32;;;4.00;;
74259;SDS011;62630;55.874;37.516;2023-04-24T00:31:14;7.90;;;4.35;;
74259;SDS011;62630;55.874;37.516;2023-04-24T00:33:40;10.45;;;4.63;;
74259;SDS011;62630;55.874;37.516;2023-04-24T00:36:06;8.98;;;4.65;;
74259;SDS011;62630;55.874;37.516;2023-04-24T00:41:24;16.40;;;4.60;;
74259;SDS011;62630;55.874;37.516;2023-04-24T00:46:40;14.60;;;5.57;;
74259;SDS011;62630;55.874;37.516;2023-04-24T00:49:06;11.40;;;5.43;;
74259;SDS011;62630;55.874;37.516;2023-04-24T00:51:32;10.23;;;4.90;;
74259;SDS011;62630;55.874;37.516;2023-04-24T00:54:03;13.23;;;5.13;;
74259;SDS011;62630;55.874;37.516;2023-04-24T00:56:48;13.73;;;5.43;;
74259;SDS011;62630;55.874;37.516;2023-04-24T00:59:16;10.18;;;4.82;;
74259;SDS011;62630;55.874;37.516;2023-04-24T01:01:43;11.50;;;4.95;;
74259;SDS011;62630;55.874;37.516;2023-04-24T01:04:09;12.15;;;5.05;;
74259;SDS011;62630;55.874;37.516;2023-04-24T01:06:38;12.57;;;5.05;;
74259;SDS011;62630;55.874;37.516;2023-04-24T01:09:04;10.93;;;4.90;;
74259;SDS011;62630;55.874;37.516;2023-04-24T01:11:30;13.02;;;5.00;;
74259;SDS011;62630;55.874;37.516;2023-04-24T01:13:56;10.02;;;4.85;;
74259;SDS011;62630;55.874;37.516;2023-04-24T01:16:23;10.90;;;5.47;;
74259;SDS011;62630;55.874;37.516;2023-04-24T01:18:49;16.10;;;5.72;;
74259;SDS011;62630;55.874;37.516;2023-04-24T01:21:16;10.98;;;4.93;;
74259;SDS011;62630;55.874;37.516;2023-04-24T01:23:43;11.98;;;5.28;;
74259;SDS011;62630;55.874;37.516;2023-04-24T01:26:09;13.90;;;5.70;;
74259;SDS011;62630;55.874;37.516;2023-04-24T01:28:35;10.60;;;5.65;;
74259;SDS011;62630;55.874;37.516;2023-04-24T01:31:01;12.93;;;5.03;;
74259;SDS011;62630;55.874;37.516;2023-04-24T01:33:30;8.65;;;5.55;;
74259;SDS011;62630;55.874;37.516;2023-04-24T01:42:36;13.65;;;6.07;;
74259;SDS011;62630;55.874;37.516;2023-04-24T01:45:03;9.77;;;5.75;;
74259;SDS011;62630;55.874;37.516;2023-04-24T01:47:30;10.50;;;6.10;;
74259;SDS011;62630;55.874;37.516;2023-04-24T01:49:56;12.10;;;5.97;;
74259;SDS011;62630;55.874;37.516;2023-04-24T01:52:22;10.40;;;5.95;;
74259;SDS011;62630;55.874;37.516;2023-04-24T01:54:48;12.85;;;5.68;;
74259;SDS011;62630;55.874;37.516;2023-04-24T01:57:14;12.80;;;6.05;;
74259;SDS011;62630;55.874;37.516;2023-04-24T02:02:06;10.25;;;6.00;;
74259;SDS011;62630;55.874;37.516;2023-04-24T02:04:32;19.13;;;6.50;;
74259;SDS011;62630;55.874;37.516;2023-04-24T02:06:58;14.48;;;6.40;;
74259;SDS011;62630;55.874;37.516;2023-04-24T02:09:23;12.77;;;6.03;;
74259;SDS011;62630;55.874;37.516;2023-04-24T02:11:49;11.45;;;6.07;;
74259;SDS011;62630;55.874;37.516;2023-04-24T02:14:15;14.93;;;6.63;;
74259;SDS011;62630;55.874;37.516;2023-04-24T02:16:41;15.63;;;6.85;;
74259;SDS011;62630;55.874;37.516;2023-04-24T02:19:07;13.23;;;7.13;;
74259;SDS011;62630;55.874;37.516;2023-04-24T02:21:33;18.58;;;6.28;;
74259;SDS011;62630;55.874;37.516;2023-04-24T02:23:58;19.48;;;6.85;;
74259;SDS011;62630;55.874;37.516;2023-04-24T02:26:24;18.02;;;7.25;;
74259;SDS011;62630;55.874;37.516;2023-04-24T02:28:50;13.43;;;6.57;;
74259;SDS011;62630;55.874;37.516;2023-04-24T02:31:15;16.58;;;6.43;;
74259;SDS011;62630;55.874;37.516;2023-04-24T02:33:41;19.10;;;7.50;;
74259;SDS011;62630;55.874;37.516;2023-04-24T02:36:07;20.38;;;7.47;;
74259;SDS011;62630;55.874;37.516;2023-04-24T02:38:32;21.13;;;7.03;;
74259;SDS011;62630;55.874;37.516;2023-04-24T02:40:58;13.55;;;7.10;;
74259;SDS011;62630;55.874;37.516;2023-04-24T02:43:23;16.33;;;7.55;;
74259;SDS011;62630;55.874;37.516;2023-04-24T02:45:49;16.13;;;6.78;;
74259;SDS011;62630;55.874;37.516;2023-04-24T02:48:15;19.33;;;6.72;;
74259;SDS011;62630;55.874;37.516;2023-04-24T02:50:42;18.58;;;7.03;;
74259;SDS011;62630;55.874;37.516;2023-04-24T02:53:08;19.13;;;6.95;;
74259;SDS011;62630;55.874;37.516;2023-04-24T02:55:33;23.70;;;7.78;;
74259;SDS011;62630;55.874;37.516;2023-04-24T02:57:59;17.48;;;7.18;;
74259;SDS011;62630;55.874;37.516;2023-04-24T03:00:25;15.30;;;6.60;;
74259;SDS011;62630;55.874;37.516;2023-04-24T03:02:50;21.08;;;7.63;;
74259;SDS011;62630;55.874;37.516;2023-04-24T03:05:16;23.20;;;7.15;;
74259;SDS011;62630;55.874;37.516;2023-04-24T03:07:42;26.63;;;7.28;;
74259;SDS011;62630;55.874;37.516;2023-04-24T03:10:10;18.13;;;7.43;;
74259;SDS011;62630;55.874;37.516;2023-04-24T03:12:35;18.40;;;7.75;;
74259;SDS011;62630;55.874;37.516;2023-04-24T03:15:01;17.77;;;7.63;;
74259;SDS011;62630;55.874;37.516;2023-04-24T03:17:26;18.63;;;7.18;;
74259;SDS011;62630;55.874;37.516;2023-04-24T03:19:52;20.52;;;7.75;;
74259;SDS011;62630;55.874;37.516;2023-04-24T03:22:17;22.60;;;8.32;;
74259;SDS011;62630;55.874;37.516;2023-04-24T03:24:43;17.67;;;7.35;;
74259;SDS011;62630;55.874;37.516;2023-04-24T03:27:08;16.75;;;7.22;;
74259;SDS011;62630;55.874;37.516;2023-04-24T03:29:34;14.95;;;7.40;;
74259;SDS011;62630;55.874;37.516;2023-04-24T03:31:59;15.82;;;7.25;;
74259;SDS011;62630;55.874;37.516;2023-04-24T03:34:25;20.25;;;8.32;;
74259;SDS011;62630;55.874;37.516;2023-04-24T03:36:51;23.00;;;9.45;;
74259;SDS011;62630;55.874;37.516;2023-04-24T03:39:17;16.23;;;7.45;;
74259;SDS011;62630;55.874;37.516;2023-04-24T03:41:43;28.58;;;7.80;;
74259;SDS011;62630;55.874;37.516;2023-04-24T03:44:09;24.90;;;8.35;;
74259;SDS011;62630;55.874;37.516;2023-04-24T03:46:34;22.65;;;8.77;;
74259;SDS011;62630;55.874;37.516;2023-04-24T03:49:00;16.70;;;7.80;;
74259;SDS011;62630;55.874;37.516;2023-04-24T03:51:26;19.10;;;8.10;;
74259;SDS011;62630;55.874;37.516;2023-04-24T03:53:53;17.70;;;7.47;;
74259;SDS011;62630;55.874;37.516;2023-04-24T03:56:18;21.10;;;7.47;;
74259;SDS011;62630;55.874;37.516;2023-04-24T03:58:44;23.02;;;8.57;;
74259;SDS011;62630;55.874;37.516;2023-04-24T04:01:10;13.63;;;7.00;;
74259;SDS011;62630;55.874;37.516;2023-04-24T04:03:36;11.93;;;7.38;;
74259;SDS011;62630;55.874;37.516;2023-04-24T04:06:02;14.95;;;7.05;;
74259;SDS011;62630;55.874;37.516;2023-04-24T04:08:28;20.38;;;7.85;;
74259;SDS011;62630;55.874;37.516;2023-04-24T04:10:54;17.60;;;6.85;;
74259;SDS011;62630;55.874;37.516;2023-04-24T04:13:20;11.25;;;6.40;;
74259;SDS011;62630;55.874;37.516;2023-04-24T04:15:57;16.23;;;5.85;;
74259;SDS011;62630;55.874;37.516;2023-04-24T04:22:09;11.57;;;5.80;;
74259;SDS011;62630;55.874;37.516;2023-04-24T04:24:35;13.65;;;5.70;;
74259;SDS011;62630;55.874;37.516;2023-04-24T04:27:03;11.20;;;6.32;;
74259;SDS011;62630;55.874;37.516;2023-04-24T04:29:30;12.52;;;6.03;;
74259;SDS011;62630;55.874;37.516;2023-04-24T04:31:56;12.27;;;6.18;;
74259;SDS011;62630;55.874;37.516;2023-04-24T04:34:22;8.90;;;5.53;;
74259;SDS011;62630;55.874;37.516;2023-04-24T04:36:48;8.90;;;5.75;;
74259;SDS011;62630;55.874;37.516;2023-04-24T04:39:13;12.40;;;5.97;;
74259;SDS011;62630;55.874;37.516;2023-04-24T04:41:40;10.90;;;6.15;;
74259;SDS011;62630;55.874;37.516;2023-04-24T04:44:06;11.90;;;6.07;;
74259;SDS011;62630;55.874;37.516;2023-04-24T04:46:33;9.38;;;5.75;;
74259;SDS011;62630;55.874;37.516;2023-04-24T04:49:00;10.43;;;6.30;;
74259;SDS011;62630;55.874;37.516;2023-04-24T04:51:26;11.38;;;6.55;;
74259;SDS011;62630;55.874;37.516;2023-04-24T04:53:52;11.20;;;6.18;;
74259;SDS011;62630;55.874;37.516;2023-04-24T04:56:18;9.18;;;5.93;;
74259;SDS011;62630;55.874;37.516;2023-04-24T04:58:44;9.38;;;5.70;;
74259;SDS011;62630;55.874;37.516;2023-04-24T05:01:13;19.20;;;5.97;;
74259;SDS011;62630;55.874;37.516;2023-04-24T05:03:38;14.18;;;6.18;;
74259;SDS011;62630;55.874;37.516;2023-04-24T05:06:04;9.63;;;5.95;;
74259;SDS011;62630;55.874;37.516;2023-04-24T05:08:30;11.35;;;6.05;;
74259;SDS011;62630;55.874;37.516;2023-04-24T05:10:56;10.05;;;5.78;;
74259;SDS011;62630;55.874;37.516;2023-04-24T05:13:21;9.75;;;5.78;;
74259;SDS011;62630;55.874;37.516;2023-04-24T05:15:47;14.20;;;6.15;;
74259;SDS011;62630;55.874;37.516;2023-04-24T05:18:13;10.63;;;5.63;;
74259;SDS011;62630;55.874;37.516;2023-04-24T05:20:39;7.35;;;5.10;;
74259;SDS011;62630;55.874;37.516;2023-04-24T05:23:04;9.88;;;5.60;;
74259;SDS011;62630;55.874;37.516;2023-04-24T05:25:30;11.77;;;5.97;;
74259;SDS011;62630;55.874;37.516;2023-04-24T05:28:00;9.82;;;5.60;;
74259;SDS011;62630;55.874;37.516;2023-04-24T05:30:25;9.52;;;5.57;;
74259;SDS011;62630;55.874;37.516;2023-04-24T05:32:51;11.38;;;5.95;;
74259;SDS011;62630;55.874;37.516;2023-04-24T05:35:17;11.65;;;6.10;;
74259;SDS011;62630;55.874;37.516;2023-04-24T05:37:43;13.13;;;5.20;;
74259;SDS011;62630;55.874;37.516;2023-04-24T05:40:09;8.73;;;6.00;;
74259;SDS011;62630;55.874;37.516;2023-04-24T05:42:36;9.48;;;6.15;;
74259;SDS011;62630;55.874;37.516;2023-04-24T05:45:01;9.25;;;5.20;;
74259;SDS011;62630;55.874;37.516;2023-04-24T05:50:32;13.00;;;5.35;;
74259;SDS011;62630;55.874;37.516;2023-04-24T05:52:57;18.08;;;7.10;;
74259;SDS011;62630;55.874;37.516;2023-04-24T05:55:24;11.02;;;4.95;;
74259;SDS011;62630;55.874;37.516;2023-04-24T06:00:16;10.32;;;5.43;;
74259;SDS011;62630;55.874;37.516;2023-04-24T06:02:44;18.27;;;5.80;;
74259;SDS011;62630;55.874;37.516;2023-04-24T06:05:10;13.57;;;5.85;;
74259;SDS011;62630;55.874;37.516;2023-04-24T06:07:36;13.00;;;5.85;;
74259;SDS011;62630;55.874;37.516;2023-04-24T06:10:01;15.57;;;6.03;;
74259;SDS011;62630;55.874;37.516;2023-04-24T06:12:27;8.02;;;4.30;;
74259;SDS011;62630;55.874;37.516;2023-04-24T06:14:53;15.80;;;4.70;;
74259;SDS011;62630;55.874;37.516;2023-04-24T06:17:20;13.85;;;5.43;;
74259;SDS011;62630;55.874;37.516;2023-04-24T06:19:46;18.77;;;4.85;;
74259;SDS011;62630;55.874;37.516;2023-04-24T06:22:12;11.95;;;4.80;;
74259;SDS011;62630;55.874;37.516;2023-04-24T06:24:37;10.63;;;4.70;;
74259;SDS011;62630;55.874;37.516;2023-04-24T06:27:03;11.77;;;5.20;;
74259;SDS011;62630;55.874;37.516;2023-04-24T06:29:28;12.48;;;5.10;;
74259;SDS011;62630;55.874;37.516;2023-04-24T06:31:54;8.77;;;4.75;;
74259;SDS011;62630;55.874;37.516;2023-04-24T06:34:19;9.35;;;4.40;;
74259;SDS011;62630;55.874;37.516;2023-04-24T06:36:46;19.30;;;4.38;;
74259;SDS011;62630;55.874;37.516;2023-04-24T06:39:12;12.07;;;4.38;;
74259;SDS011;62630;55.874;37.516;2023-04-24T06:41:39;9.98;;;4.53;;
74259;SDS011;62630;55.874;37.516;2023-04-24T06:44:05;10.95;;;4.47;;
74259;SDS011;62630;55.874;37.516;2023-04-24T06:46:31;12.25;;;4.40;;
74259;SDS011;62630;55.874;37.516;2023-04-24T06:48:56;10.07;;;5.22;;
74259;SDS011;62630;55.874;37.516;2023-04-24T06:51:23;11.65;;;4.75;;
74259;SDS011;62630;55.874;37.516;2023-04-24T06:53:53;12.00;;;4.60;;
74259;SDS011;62630;55.874;37.516;2023-04-24T06:56:30;10.50;;;5.05;;
74259;SDS011;62630;55.874;37.516;2023-04-24T06:58:56;12.10;;;4.63;;
74259;SDS011;62630;55.874;37.516;2023-04-24T07:01:21;9.15;;;4.32;;
74259;SDS011;62630;55.874;37.516;2023-04-24T07:03:47;9.13;;;3.60;;
74259;SDS011;62630;55.874;37.516;2023-04-24T07:06:12;7.13;;;4.00;;
74259;SDS011;62630;55.874;37.516;2023-04-24T07:08:38;6.05;;;3.95;;
74259;SDS011;62630;55.874;37.516;2023-04-24T07:11:04;8.45;;;4.60;;
74259;SDS011;62630;55.874;37.516;2023-04-24T07:13:30;11.18;;;4.57;;
74259;SDS011;62630;55.874;37.516;2023-04-24T07:15:59;8.63;;;4.20;;
74259;SDS011;62630;55.874;37.516;2023-04-24T07:18:24;7.93;;;4.13;;
74259;SDS011;62630;55.874;37.516;2023-04-24T07:20:50;11.15;;;4.50;;
74259;SDS011;62630;55.874;37.516;2023-04-24T07:23:16;13.80;;;4.53;;
74259;SDS011;62630;55.874;37.516;2023-04-24T07:25:42;11.93;;;4.70;;
74259;SDS011;62630;55.874;37.516;2023-04-24T07:28:09;7.60;;;3.50;;
74259;SDS011;62630;55.874;37.516;2023-04-24T07:30:34;11.30;;;4.03;;
74259;SDS011;62630;55.874;37.516;2023-04-24T07:33:00;6.70;;;3.70;;
74259;SDS011;62630;55.874;37.516;2023-04-24T07:35:26;8.20;;;3.53;;
74259;SDS011;62630;55.874;37.516;2023-04-24T07:37:54;12.77;;;3.38;;
74259;SDS011;62630;55.874;37.516;2023-04-24T07:40:21;10.70;;;3.40;;
74259;SDS011;62630;55.874;37.516;2023-04-24T07:42:47;11.52;;;3.45;;
74259;SDS011;62630;55.874;37.516;2023-04-24T07:45:15;6.35;;;3.55;;
74259;SDS011;62630;55.874;37.516;2023-04-24T07:47:43;6.78;;;3.95;;
74259;SDS011;62630;55.874;37.516;2023-04-24T07:50:11;12.13;;;4.15;;
74259;SDS011;62630;55.874;37.516;2023-04-24T07:52:38;11.65;;;3.55;;
74259;SDS011;62630;55.874;37.516;2023-04-24T07:57:31;9.77;;;3.70;;
74259;SDS011;62630;55.874;37.516;2023-04-24T07:59:56;9.45;;;3.70;;
74259;SDS011;62630;55.874;37.516;2023-04-24T08:02:22;10.93;;;4.07;;
74259;SDS011;62630;55.874;37.516;2023-04-24T08:04:54;7.75;;;3.67;;
74259;SDS011;62630;55.874;37.516;2023-04-24T08:07:23;8.30;;;3.75;;
74259;SDS011;62630;55.874;37.516;2023-04-24T08:09:51;6.63;;;3.88;;
74259;SDS011;62630;55.874;37.516;2023-04-24T08:12:17;6.75;;;3.60;;
74259;SDS011;62630;55.874;37.516;2023-04-24T08:14:50;10.68;;;3.30;;
74259;SDS011;62630;55.874;37.516;2023-04-24T08:17:16;6.53;;;3.40;;
74259;SDS011;62630;55.874;37.516;2023-04-24T08:19:42;8.07;;;3.47;;
74259;SDS011;62630;55.874;37.516;2023-04-24T08:22:12;6.75;;;3.47;;
74259;SDS011;62630;55.874;37.516;2023-04-24T08:24:38;8.25;;;3.53;;
74259;SDS011;62630;55.874;37.516;2023-04-24T08:27:04;7.50;;;2.67;;
74259;SDS011;62630;55.874;37.516;2023-04-24T08:29:30;9.68;;;2.92;;
74259;SDS011;62630;55.874;37.516;2023-04-24T08:31:55;10.90;;;3.72;;
74259;SDS011;62630;55.874;37.516;2023-04-24T08:34:21;5.90;;;3.47;;
74259;SDS011;62630;55.874;37.516;2023-04-24T08:36:47;6.50;;;3.08;;
74259;SDS011;62630;55.874;37.516;2023-04-24T08:39:13;8.25;;;3.35;;
74259;SDS011;62630;55.874;37.516;2023-04-24T08:41:41;5.75;;;3.22;;
74259;SDS011;62630;55.874;37.516;2023-04-24T08:44:25;6.57;;;3.45;;
74259;SDS011;62630;55.874;37.516;2023-04-24T08:46:50;7.00;;;3.88;;
74259;SDS011;62630;55.874;37.516;2023-04-24T08:49:18;4.43;;;3.63;;
74259;SDS011;62630;55.874;37.516;2023-04-24T08:51:47;8.02;;;3.15;;
74259;SDS011;62630;55.874;37.516;2023-04-24T08:54:17;7.85;;;3.28;;
74259;SDS011;62630;55.874;37.516;2023-04-24T08:56:45;5.57;;;3.28;;
74259;SDS011;62630;55.874;37.516;2023-04-24T08:59:14;8.95;;;3.50;;
74259;SDS011;62630;55.874;37.516;2023-04-24T09:01:41;6.25;;;3.58;;
74259;SDS011;62630;55.874;37.516;2023-04-24T09:04:10;5.13;;;3.35;;
74259;SDS011;62630;55.874;37.516;2023-04-24T09:06:37;10.85;;;3.75;;
74259;SDS011;62630;55.874;37.516;2023-04-24T09:09:03;7.25;;;3.55;;
74259;SDS011;62630;55.874;37.516;2023-04-24T09:11:30;9.60;;;3.17;;
74259;SDS011;62630;55.874;37.516;2023-04-24T09:13:58;7.10;;;3.60;;
74259;SDS011;62630;55.874;37.516;2023-04-24T09:16:25;7.78;;;3.70;;
74259;SDS011;62630;55.874;37.516;2023-04-24T09:18:52;17.25;;;3.88;;
74259;SDS011;62630;55.874;37.516;2023-04-24T09:21:20;8.48;;;3.58;;
74259;SDS011;62630;55.874;37.516;2023-04-24T09:23:47;6.40;;;3.75;;
74259;SDS011;62630;55.874;37.516;2023-04-24T09:26:24;9.93;;;3.50;;
74259;SDS011;62630;55.874;37.516;2023-04-24T09:28:49;7.72;;;3.70;;
74259;SDS011;62630;55.874;37.516;2023-04-24T09:31:17;10.77;;;3.60;;
74259;SDS011;62630;55.874;37.516;2023-04-24T09:36:46;5.60;;;3.20;;
74259;SDS011;62630;55.874;37.516;2023-04-24T09:39:13;7.70;;;3.17;;
74259;SDS011;62630;55.874;37.516;2023-04-24T09:41:44;6.55;;;3.55;;
74259;SDS011;62630;55.874;37.516;2023-04-24T09:44:26;5.10;;;3.00;;
74259;SDS011;62630;55.874;37.516;2023-04-24T09:46:54;5.18;;;3.03;;
74259;SDS011;62630;55.874;37.516;2023-04-24T09:49:26;8.43;;;3.35;;
74259;SDS011;62630;55.874;37.516;2023-04-24T09:52:07;7.05;;;3.20;;
74259;SDS011;62630;55.874;37.516;2023-04-24T09:54:34;9.70;;;3.88;;
74259;SDS011;62630;55.874;37.516;2023-04-24T09:57:01;7.60;;;3.55;;
74259;SDS011;62630;55.874;37.516;2023-04-24T09:59:28;4.57;;;3.17;;
74259;SDS011;62630;55.874;37.516;2023-04-24T10:01:54;10.60;;;3.60;;
74259;SDS011;62630;55.874;37.516;2023-04-24T10:06:47;9.85;;;3.10;;
74259;SDS011;62630;55.874;37.516;2023-04-24T10:09:14;8.45;;;3.10;;
74259;SDS011;62630;55.874;37.516;2023-04-24T10:11:44;5.97;;;2.95;;
74259;SDS011;62630;55.874;37.516;2023-04-24T10:14:13;10.27;;;3.97;;
74259;SDS011;62630;55.874;37.516;2023-04-24T10:16:40;13.48;;;3.40;;
74259;SDS011;62630;55.874;37.516;2023-04-24T10:19:06;6.18;;;3.28;;
74259;SDS011;62630;55.874;37.516;2023-04-24T10:21:33;6.68;;;3.65;;
74259;SDS011;62630;55.874;37.516;2023-04-24T10:24:00;6.63;;;3.00;;
74259;SDS011;62630;55.874;37.516;2023-04-24T10:26:28;8.85;;;3.53;;
74259;SDS011;62630;55.874;37.516;2023-04-24T10:28:55;8.30;;;3.38;;
74259;SDS011;62630;55.874;37.516;2023-04-24T10:31:23;11.82;;;3.53;;
74259;SDS011;62630;55.874;37.516;2023-04-24T10:33:49;4.10;;;3.08;;
74259;SDS011;62630;55.874;37.516;2023-04-24T10:36:16;6.60;;;2.92;;
74259;SDS011;62630;55.874;37.516;2023-04-24T10:38:43;10.07;;;3.33;;
74259;SDS011;62630;55.874;37.516;2023-04-24T10:41:12;6.70;;;3.35;;
74259;SDS011;62630;55.874;37.516;2023-04-24T10:43:48;6.38;;;3.08;;
74259;SDS011;62630;55.874;37.516;2023-04-24T10:46:22;6.72;;;3.10;;
74259;SDS011;62630;55.874;37.516;2023-04-24T10:48:54;6.60;;;3.53;;
74259;SDS011;62630;55.874;37.516;2023-04-24T10:51:21;6.63;;;3.05;;
74259;SDS011;62630;55.874;37.516;2023-04-24T10:53:49;8.30;;;3.00;;
74259;SDS011;62630;55.874;37.516;2023-04-24T10:56:16;9.65;;;3.28;;
74259;SDS011;62630;55.874;37.516;2023-04-24T10:58:49;7.90;;;3.50;;
74259;SDS011;62630;55.874;37.516;2023-04-24T11:01:27;10.05;;;3.35;;
74259;SDS011;62630;55.874;37.516;2023-04-24T11:03:56;7.78;;;3.30;;
74259;SDS011;62630;55.874;37.516;2023-04-24T11:08:59;8.00;;;2.88;;
74259;SDS011;62630;55.874;37.516;2023-04-24T11:11:29;6.47;;;3.25;;
74259;SDS011;62630;55.874;37.516;2023-04-24T11:16:23;10.52;;;3.25;;
74259;SDS011;62630;55.874;37.516;2023-04-24T11:21:38;4.00;;;2.80;;
74259;SDS011;62630;55.874;37.516;2023-04-24T11:29:42;8.50;;;3.17;;
74259;SDS011;62630;55.874;37.516;2023-04-24T11:32:17;4.38;;;2.40;;
74259;SDS011;62630;55.874;37.516;2023-04-24T11:34:46;7.63;;;3.15;;
74259;SDS011;62630;55.874;37.516;2023-04-24T11:37:15;8.73;;;3.17;;
74259;SDS011;62630;55.874;37.516;2023-04-24T11:39:41;4.38;;;3.10;;
74259;SDS011;62630;55.874;37.516;2023-04-24T11:42:08;6.07;;;3.10;;
74259;SDS011;62630;55.874;37.516;2023-04-24T11:44:34;7.07;;;3.35;;
74259;SDS011;62630;55.874;37.516;2023-04-24T11:47:03;11.20;;;3.00;;
74259;SDS011;62630;55.874;37.516;2023-04-24T11:49:36;52.22;;;21.00;;
74259;SDS011;62630;55.874;37.516;2023-04-24T11:52:05;4.57;;;2.80;;
74259;SDS011;62630;55.874;37.516;2023-04-24T11:54:31;6.35;;;3.15;;
74259;SDS011;62630;55.874;37.516;2023-04-24T11:56:56;5.25;;;2.80;;
74259;SDS011;62630;55.874;37.516;2023-04-24T11:59:22;8.18;;;2.95;;
74259;SDS011;62630;55.874;37.516;2023-04-24T12:01:48;9.88;;;3.20;;
74259;SDS011;62630;55.874;37.516;2023-04-24T12:04:15;7.10;;;3.10;;
74259;SDS011;62630;55.874;37.516;2023-04-24T12:09:27;4.18;;;2.85;;
74259;SDS011;62630;55.874;37.516;2023-04-24T12:11:56;6.70;;;2.72;;
74259;SDS011;62630;55.874;37.516;2023-04-24T12:14:24;5.03;;;2.67;;
74259;SDS011;62630;55.874;37.516;2023-04-24T12:16:50;6.63;;;2.97;;
74259;SDS011;62630;55.874;37.516;2023-04-24T12:19:22;10.63;;;3.08;;
74259;SDS011;62630;55.874;37.516;2023-04-24T12:22:05;4.80;;;2.80;;
74259;SDS011;62630;55.874;37.516;2023-04-24T12:24:31;4.90;;;3.17;;
74259;SDS011;62630;55.874;37.516;2023-04-24T12:26:57;3.60;;;2.88;;
74259;SDS011;62630;55.874;37.516;2023-04-24T12:29:23;3.85;;;2.45;;
74259;SDS011;62630;55.874;37.516;2023-04-24T12:31:51;9.18;;;2.92;;
74259;SDS011;62630;55.874;37.516;2023-04-24T12:34:20;3.70;;;2.30;;
74259;SDS011;62630;55.874;37.516;2023-04-24T12:36:51;8.15;;;2.60;;
74259;SDS011;62630;55.874;37.516;2023-04-24T12:39:18;5.72;;;2.55;;
74259;SDS011;62630;55.874;37.516;2023-04-24T12:41:54;9.82;;;3.47;;
74259;SDS011;62630;55.874;37.516;2023-04-24T12:44:32;4.85;;;2.92;;
74259;SDS011;62630;55.874;37.516;2023-04-24T12:47:05;4.93;;;3.00;;
74259;SDS011;62630;55.874;37.516;2023-04-24T12:49:32;5.18;;;2.92;;
74259;SDS011;62630;55.874;37.516;2023-04-24T12:51:58;7.55;;;2.55;;
74259;SDS011;62630;55.874;37.516;2023-04-24T12:54:23;4.18;;;2.53;;
74259;SDS011;62630;55.874;37.516;2023-04-24T12:56:49;6.03;;;3.20;;
74259;SDS011;62630;55.874;37.516;2023-04-24T12:59:15;4.53;;;2.60;;
74259;SDS011;62630;55.874;37.516;2023-04-24T13:01:40;4.90;;;3.00;;
74259;SDS011;62630;55.874;37.516;2023-04-24T13:04:06;3.97;;;2.60;;
74259;SDS011;62630;55.874;37.516;2023-04-24T13:06:35;6.43;;;3.13;;
74259;SDS011;62630;55.874;37.516;2023-04-24T13:09:00;3.72;;;2.50;;
74259;SDS011;62630;55.874;37.516;2023-04-24T13:11:26;6.30;;;2.88;;
74259;SDS011;62630;55.874;37.516;2023-04-24T13:13:52;3.67;;;2.78;;
74259;SDS011;62630;55.874;37.516;2023-04-24T13:16:17;5.57;;;2.78;;
74259;SDS011;62630;55.874;37.516;2023-04-24T13:18:43;5.32;;;2.45;;
74259;SDS011;62630;55.874;37.516;2023-04-24T13:21:08;9.77;;;2.90;;
74259;SDS011;62630;55.874;37.516;2023-04-24T13:23:34;10.57;;;2.88;;
74259;SDS011;62630;55.874;37.516;2023-04-24T13:25:59;4.82;;;2.83;;
74259;SDS011;62630;55.874;37.516;2023-04-24T13:28:26;6.15;;;2.45;;
74259;SDS011;62630;55.874;37.516;2023-04-24T13:30:52;4.57;;;2.75;;
74259;SDS011;62630;55.874;37.516;2023-04-24T13:33:20;5.80;;;2.85;;
74259;SDS011;62630;55.874;37.516;2023-04-24T13:35:47;3.65;;;2.40;;
74259;SDS011;62630;55.874;37.516;2023-04-24T13:38:13;5.22;;;3.10;;
74259;SDS011;62630;55.874;37.516;2023-04-24T13:40:44;9.55;;;2.50;;
74259;SDS011;62630;55.874;37.516;2023-04-24T13:43:10;8.07;;;2.95;;
74259;SDS011;62630;55.874;37.516;2023-04-24T13:45:35;7.30;;;2.80;;
74259;SDS011;62630;55.874;37.516;2023-04-24T13:48:01;4.28;;;2.50;;
74259;SDS011;62630;55.874;37.516;2023-04-24T13:50:28;9.10;;;2.78;;
74259;SDS011;62630;55.874;37.516;2023-04-24T13:52:53;5.25;;;2.70;;
74259;SDS011;62630;55.874;37.516;2023-04-24T13:55:20;8.75;;;3.20;;
74259;SDS011;62630;55.874;37.516;2023-04-24T13:57:49;7.30;;;2.67;;
74259;SDS011;62630;55.874;37.516;2023-04-24T14:00:15;4.20;;;2.85;;
74259;SDS011;62630;55.874;37.516;2023-04-24T14:02:42;11.32;;;2.80;;
74259;SDS011;62630;55.874;37.516;2023-04-24T14:05:07;5.10;;;2.60;;
74259;SDS011;62630;55.874;37.516;2023-04-24T14:07:36;4.55;;;2.97;;
74259;SDS011;62630;55.874;37.516;2023-04-24T14:10:01;3.20;;;2.60;;
74259;SDS011;62630;55.874;37.516;2023-04-24T14:12:27;4.43;;;2.28;;
74259;SDS011;62630;55.874;37.516;2023-04-24T14:14:52;9.80;;;2.63;;
74259;SDS011;62630;55.874;37.516;2023-04-24T14:17:19;5.90;;;3.00;;
74259;SDS011;62630;55.874;37.516;2023-04-24T14:19:44;3.10;;;2.42;;
74259;SDS011;62630;55.874;37.516;2023-04-24T14:22:10;6.97;;;2.70;;
74259;SDS011;62630;55.874;37.516;2023-04-24T14:24:36;9.52;;;3.00;;
74259;SDS011;62630;55.874;37.516;2023-04-24T14:27:02;6.95;;;2.50;;
74259;SDS011;62630;55.874;37.516;2023-04-24T14:29:28;5.47;;;2.75;;
74259;SDS011;62630;55.874;37.516;2023-04-24T14:31:53;7.53;;;2.72;;
74259;SDS011;62630;55.874;37.516;2023-04-24T14:34:20;8.00;;;3.05;;
74259;SDS011;62630;55.874;37.516;2023-04-24T14:36:46;10.68;;;2.90;;
74259;SDS011;62630;55.874;37.516;2023-04-24T14:39:11;5.47;;;2.70;;
74259;SDS011;62630;55.874;37.516;2023-04-24T14:41:37;3.67;;;2.40;;
74259;SDS011;62630;55.874;37.516;2023-04-24T14:44:04;13.18;;;3.05;;
74259;SDS011;62630;55.874;37.516;2023-04-24T14:46:30;6.82;;;2.60;;
74259;SDS011;62630;55.874;37.516;2023-04-24T14:48:56;3.75;;;2.40;;
74259;SDS011;62630;55.874;37.516;2023-04-24T14:51:23;6.22;;;2.67;;
74259;SDS011;62630;55.874;37.516;2023-04-24T14:56:16;14.05;;;2.60;;
74259;SDS011;62630;55.874;37.516;2023-04-24T14:58:46;6.40;;;2.90;;
74259;SDS011;62630;55.874;37.516;2023-04-24T15:01:11;9.27;;;2.92;;
74259;SDS011;62630;55.874;37.516;2023-04-24T15:03:37;6.43;;;2.75;;
74259;SDS011;62630;55.874;37.516;2023-04-24T15:06:02;9.77;;;2.78;;
74259;SDS011;62630;55.874;37.516;2023-04-24T15:08:31;10.30;;;2.40;;
74259;SDS011;62630;55.874;37.516;2023-04-24T15:10:57;5.38;;;2.95;;
74259;SDS011;62630;55.874;37.516;2023-04-24T15:13:23;6.78;;;2.80;;
74259;SDS011;62630;55.874;37.516;2023-04-24T15:15:48;11.75;;;3.22;;
74259;SDS011;62630;55.874;37.516;2023-04-24T15:18:14;9.85;;;2.92;;